createdAt,value
2024-03-02T00:00:45.879Z,4.66
2024-03-02T00:01:45.827Z,4.71
2024-03-02T00:02:45.784Z,4.67
2024-03-02T00:03:45.828Z,4.73
2024-03-02T00:04:45.742Z,4.71
2024-03-02T00:05:45.738Z,4.68
2024-03-02T00:06:45.768Z,4.62
2024-03-02T00:07:45.752Z,4.63
2024-03-02T00:08:45.733Z,4.63
2024-03-02T00:09:45.729Z,4.67
2024-03-02T00:10:45.719Z,4.62
2024-03-02T00:11:45.717Z,4.60
2024-03-02T00:12:45.749Z,4.66
2024-03-02T00:13:45.684Z,4.71
2024-03-02T00:14:45.679Z,4.60
2024-03-02T00:15:45.719Z,4.49
2024-03-02T00:16:45.660Z,4.62
2024-03-02T00:17:45.704Z,4.55
2024-03-02T00:18:45.688Z,4.53
2024-03-02T00:19:45.641Z,4.53
2024-03-02T00:20:45.634Z,4.52
2024-03-02T00:21:45.707Z,4.58
2024-03-02T00:22:46.841Z,4.48
2024-03-02T00:23:45.645Z,4.59
2024-03-02T00:24:45.646Z,4.53
2024-03-02T00:25:45.604Z,4.52
2024-03-02T00:26:45.624Z,4.45
2024-03-02T00:27:45.607Z,4.53
2024-03-02T00:28:45.573Z,4.44
2024-03-02T00:29:45.568Z,4.55
2024-03-02T00:30:45.599Z,4.37
2024-03-02T00:31:45.585Z,4.32
2024-03-02T00:32:45.563Z,4.38
2024-03-02T00:33:45.661Z,4.35
2024-03-02T00:34:45.535Z,4.44
2024-03-02T00:35:45.600Z,4.34
2024-03-02T00:36:45.564Z,4.32
2024-03-02T00:37:45.527Z,4.31
2024-03-02T00:38:45.507Z,4.08
2024-03-02T00:39:45.565Z,4.10
2024-03-02T00:40:45.525Z,4.12
2024-03-02T00:41:45.481Z,4.10
2024-03-02T00:42:45.526Z,4.16
2024-03-02T00:43:47.469Z,4.02
2024-03-02T00:44:46.487Z,4.08
2024-03-02T00:45:45.535Z,4.14
2024-03-02T00:46:45.493Z,4.13
2024-03-02T00:47:45.461Z,4.17
2024-03-02T00:48:46.451Z,4.13
2024-03-02T00:49:45.417Z,4.17
2024-03-02T00:50:45.446Z,4.12
2024-03-02T00:51:45.422Z,4.14
2024-03-02T00:52:45.393Z,4.08
2024-03-02T00:53:45.398Z,4.17
2024-03-02T00:54:45.411Z,4.19
2024-03-02T00:55:45.484Z,4.12
2024-03-02T00:56:45.379Z,4.13
2024-03-02T00:57:45.480Z,4.10
2024-03-02T00:58:45.351Z,4.12
2024-03-02T00:59:45.375Z,4.12
2024-03-02T01:00:45.412Z,4.12
2024-03-02T01:01:45.376Z,4.05
2024-03-02T01:02:45.328Z,4.06
2024-03-02T01:03:45.389Z,4.04
2024-03-02T01:04:45.343Z,4.01
2024-03-02T01:05:45.337Z,3.94
2024-03-02T01:06:45.349Z,3.96
2024-03-02T01:07:45.285Z,4.10
2024-03-02T01:08:45.271Z,3.98
2024-03-02T01:09:45.283Z,3.91
2024-03-02T01:10:45.378Z,4.02
2024-03-02T01:11:45.246Z,4.13
2024-03-02T01:12:45.300Z,4.02
2024-03-02T01:13:45.274Z,3.98
2024-03-02T01:14:45.238Z,3.91
2024-03-02T01:15:45.258Z,3.92
2024-03-02T01:16:45.249Z,3.95
2024-03-02T01:17:45.210Z,3.99
2024-03-02T01:18:45.350Z,3.98
2024-03-02T01:19:45.525Z,3.98
2024-03-02T01:20:45.206Z,3.95
2024-03-02T01:21:45.196Z,4.01
2024-03-02T01:22:45.166Z,4.01
2024-03-02T01:23:45.227Z,4.13
2024-03-02T01:24:45.225Z,4.10
2024-03-02T01:25:45.169Z,3.91
2024-03-02T01:26:45.138Z,3.94
2024-03-02T01:27:46.781Z,4.01
2024-03-02T01:28:45.151Z,3.98
2024-03-02T01:29:45.141Z,3.95
2024-03-02T01:30:45.139Z,3.94
2024-03-02T01:31:45.133Z,3.94
2024-03-02T01:32:45.193Z,3.87
2024-03-02T01:33:45.130Z,3.94
2024-03-02T01:34:45.105Z,3.94
2024-03-02T01:35:45.101Z,3.94
2024-03-02T01:36:45.119Z,3.87
2024-03-02T01:37:45.063Z,3.99
2024-03-02T01:38:45.060Z,3.98
2024-03-02T01:39:45.087Z,3.87
2024-03-02T01:40:45.042Z,3.99
2024-03-02T01:41:45.032Z,3.98
2024-03-02T01:42:45.064Z,3.95
2024-03-02T01:43:45.036Z,3.87
2024-03-02T01:44:45.044Z,3.98
2024-03-02T01:45:45.023Z,3.94
2024-03-02T01:46:44.987Z,3.96
2024-03-02T01:47:45.008Z,3.95
2024-03-02T01:48:45.951Z,3.96
2024-03-02T01:49:44.962Z,3.95
2024-03-02T01:50:44.957Z,3.92
2024-03-02T01:51:44.979Z,4.08
2024-03-02T01:52:44.941Z,3.95
2024-03-02T01:53:44.964Z,4.02
2024-03-02T01:54:44.973Z,3.99
2024-03-02T01:55:44.934Z,3.94
2024-03-02T01:56:44.906Z,3.95
2024-03-02T01:57:44.957Z,3.73
2024-03-02T01:58:44.915Z,3.70
2024-03-02T01:59:44.883Z,3.80
2024-03-02T02:00:44.935Z,3.69
2024-03-02T02:01:44.908Z,3.66
2024-03-02T02:02:44.891Z,3.58
2024-03-02T02:03:44.875Z,3.68
2024-03-02T02:04:44.905Z,3.59
2024-03-02T02:05:44.852Z,3.56
2024-03-02T02:06:44.872Z,3.47
2024-03-02T02:07:44.848Z,3.51
2024-03-02T02:08:44.807Z,3.44
2024-03-02T02:09:44.845Z,3.32
2024-03-02T02:10:44.841Z,3.41
2024-03-02T02:11:44.823Z,3.41
2024-03-02T02:12:44.970Z,3.42
2024-03-02T02:13:44.787Z,3.47
2024-03-02T02:14:44.787Z,3.34
2024-03-02T02:15:44.784Z,3.48
2024-03-02T02:16:45.070Z,3.45
2024-03-02T02:17:44.772Z,3.32
2024-03-02T02:18:44.771Z,3.32
2024-03-02T02:19:44.726Z,3.50
2024-03-02T02:20:44.727Z,3.40
2024-03-02T02:21:45.364Z,3.40
2024-03-02T02:22:44.711Z,3.40
2024-03-02T02:23:44.717Z,3.45
2024-03-02T02:24:44.729Z,3.34
2024-03-02T02:25:45.535Z,3.37
2024-03-02T02:26:45.531Z,3.22
2024-03-02T02:27:44.740Z,3.36
2024-03-02T02:28:44.665Z,3.28
2024-03-02T02:29:44.652Z,3.22
2024-03-02T02:30:44.692Z,3.36
2024-03-02T02:31:44.663Z,3.28
2024-03-02T02:32:44.655Z,3.16
2024-03-02T02:33:44.672Z,3.11
2024-03-02T02:34:44.623Z,3.26
2024-03-02T02:35:44.633Z,3.11
2024-03-02T02:36:44.621Z,3.11
2024-03-02T02:37:44.607Z,3.18
2024-03-02T02:38:44.588Z,3.16
2024-03-02T02:39:44.594Z,3.10
2024-03-02T02:40:44.597Z,3.08
2024-03-02T02:41:44.561Z,3.07
2024-03-02T02:42:44.645Z,3.13
2024-03-02T02:43:44.547Z,3.08
2024-03-02T02:44:45.416Z,3.13
2024-03-02T02:45:44.612Z,3.14
2024-03-02T02:46:44.528Z,3.11
2024-03-02T02:47:44.638Z,3.04
2024-03-02T02:48:44.551Z,3.05
2024-03-02T02:49:44.526Z,3.03
2024-03-02T02:50:44.516Z,3.03
2024-03-02T02:51:44.564Z,3.04
2024-03-02T02:52:44.476Z,3.07
2024-03-02T02:53:44.484Z,3.16
2024-03-02T02:54:44.563Z,3.04
2024-03-02T02:55:44.462Z,3.08
2024-03-02T02:56:44.449Z,3.16
2024-03-02T02:57:44.839Z,3.07
2024-03-02T02:58:44.441Z,3.08
2024-03-02T02:59:44.452Z,2.97
2024-03-02T03:00:44.550Z,2.98
2024-03-02T03:01:44.452Z,2.95
2024-03-02T03:02:44.412Z,3.01
2024-03-02T03:03:44.488Z,3.13
2024-03-02T03:04:44.416Z,3.10
2024-03-02T03:05:44.383Z,3.16
2024-03-02T03:06:44.389Z,3.11
2024-03-02T03:07:44.370Z,3.03
2024-03-02T03:08:44.385Z,3.05
2024-03-02T03:09:44.409Z,2.92
2024-03-02T03:10:44.344Z,3.05
2024-03-02T03:11:44.351Z,2.93
2024-03-02T03:12:45.274Z,3.04
2024-03-02T03:13:45.358Z,2.90
2024-03-02T03:14:44.322Z,2.93
2024-03-02T03:15:44.396Z,2.97
2024-03-02T03:16:44.305Z,2.83
2024-03-02T03:17:44.308Z,2.75
2024-03-02T03:18:44.341Z,2.86
2024-03-02T03:19:44.283Z,2.80
2024-03-02T03:20:44.280Z,2.71
2024-03-02T03:21:44.285Z,2.72
2024-03-02T03:22:44.312Z,2.74
2024-03-02T03:23:44.268Z,2.74
2024-03-02T03:24:44.334Z,2.72
2024-03-02T03:25:44.250Z,2.67
2024-03-02T03:26:44.245Z,2.74
2024-03-02T03:27:44.329Z,2.61
2024-03-02T03:28:44.209Z,2.64
2024-03-02T03:29:44.207Z,2.64
2024-03-02T03:30:44.221Z,2.57
2024-03-02T03:31:44.192Z,2.39
2024-03-02T03:32:44.646Z,2.43
2024-03-02T03:33:44.244Z,2.54
2024-03-02T03:34:44.188Z,2.42
2024-03-02T03:35:44.160Z,2.44
2024-03-02T03:36:44.771Z,2.46
2024-03-02T03:37:44.824Z,2.42
2024-03-02T03:38:44.141Z,2.44
2024-03-02T03:39:44.176Z,2.33
2024-03-02T03:40:44.115Z,2.29
2024-03-02T03:41:44.139Z,2.36
2024-03-02T03:42:44.150Z,2.28
2024-03-02T03:43:44.093Z,2.29
2024-03-02T03:44:44.095Z,2.33
2024-03-02T03:45:44.131Z,2.35
2024-03-02T03:46:44.102Z,2.39
2024-03-02T03:47:44.085Z,2.47
2024-03-02T03:48:44.122Z,2.38
2024-03-02T03:49:44.053Z,2.14
2024-03-02T03:50:44.071Z,1.97
2024-03-02T03:51:44.092Z,2.06
2024-03-02T03:52:44.034Z,2.02
2024-03-02T03:53:44.025Z,2.02
2024-03-02T03:54:44.054Z,1.99
2024-03-02T03:55:44.039Z,1.95
2024-03-02T03:56:44.002Z,1.91
2024-03-02T03:57:44.008Z,1.89
2024-03-02T03:58:43.986Z,1.95
2024-03-02T03:59:43.997Z,1.91
2024-03-02T04:00:44.038Z,1.94
2024-03-02T04:01:44.018Z,1.99
2024-03-02T04:02:43.953Z,1.94
2024-03-02T04:03:43.999Z,1.94
2024-03-02T04:04:43.981Z,2.00
2024-03-02T04:05:44.068Z,1.97
2024-03-02T04:06:43.988Z,1.95
2024-03-02T04:07:43.920Z,2.02
2024-03-02T04:08:43.908Z,2.02
2024-03-02T04:09:43.969Z,2.00
2024-03-02T04:10:43.910Z,1.99
2024-03-02T04:11:44.886Z,1.99
2024-03-02T04:12:43.895Z,1.94
2024-03-02T04:13:43.869Z,1.94
2024-03-02T04:14:44.084Z,2.04
2024-03-02T04:15:43.909Z,1.97
2024-03-02T04:16:43.877Z,2.02
2024-03-02T04:17:43.872Z,2.02
2024-03-02T04:18:43.837Z,1.95
2024-03-02T04:19:43.849Z,1.85
2024-03-02T04:20:43.810Z,2.02
2024-03-02T04:21:43.861Z,1.99
2024-03-02T04:22:43.799Z,1.99
2024-03-02T04:23:43.804Z,1.94
2024-03-02T04:24:43.812Z,1.84
2024-03-02T04:25:43.778Z,1.87
2024-03-02T04:26:43.772Z,1.94
2024-03-02T04:27:43.775Z,1.88
2024-03-02T04:28:43.787Z,1.89
2024-03-02T04:29:43.789Z,1.97
2024-03-02T04:30:43.804Z,2.02
2024-03-02T04:31:43.782Z,1.97
2024-03-02T04:32:43.747Z,1.95
2024-03-02T04:33:43.780Z,1.91
2024-03-02T04:34:43.746Z,1.95
2024-03-02T04:35:43.705Z,1.92
2024-03-02T04:36:43.711Z,1.91
2024-03-02T04:37:43.703Z,1.84
2024-03-02T04:38:43.704Z,1.87
2024-03-02T04:40:16.436Z,1.76
2024-03-02T04:40:43.669Z,1.80
2024-03-02T04:41:43.660Z,1.80
2024-03-02T04:42:43.756Z,1.81
2024-03-02T04:43:43.653Z,1.88
2024-03-02T04:44:43.622Z,1.73
2024-03-02T04:45:44.791Z,1.77
2024-03-02T04:46:43.623Z,1.76
2024-03-02T04:47:43.633Z,1.73
2024-03-02T04:48:43.674Z,1.74
2024-03-02T04:49:43.674Z,1.85
2024-03-02T04:50:43.597Z,1.84
2024-03-02T04:51:43.684Z,1.77
2024-03-02T04:52:43.620Z,1.73
2024-03-02T04:53:43.574Z,1.68
2024-03-02T04:54:43.608Z,1.78
2024-03-02T04:55:43.558Z,1.78
2024-03-02T04:56:43.622Z,1.78
2024-03-02T04:57:43.553Z,1.78
2024-03-02T04:58:43.544Z,1.74
2024-03-02T04:59:43.521Z,1.76
2024-03-02T05:00:43.602Z,1.73
2024-03-02T05:01:43.561Z,1.74
2024-03-02T05:02:43.500Z,1.84
2024-03-02T05:03:43.534Z,1.71
2024-03-02T05:04:43.489Z,1.76
2024-03-02T05:05:43.527Z,1.78
2024-03-02T05:06:43.608Z,1.73
2024-03-02T05:07:43.470Z,1.76
2024-03-02T05:08:43.453Z,1.71
2024-03-02T05:09:43.517Z,1.68
2024-03-02T05:10:43.490Z,1.62
2024-03-02T05:11:43.554Z,1.66
2024-03-02T05:12:43.578Z,1.67
2024-03-02T05:13:43.406Z,1.74
2024-03-02T05:14:43.444Z,1.67
2024-03-02T05:15:43.478Z,1.66
2024-03-02T05:16:43.385Z,1.74
2024-03-02T05:17:43.439Z,1.68
2024-03-02T05:18:43.492Z,1.70
2024-03-02T05:19:43.364Z,1.66
2024-03-02T05:20:43.427Z,1.56
2024-03-02T05:21:43.403Z,1.66
2024-03-02T05:22:43.358Z,1.55
2024-03-02T05:23:43.342Z,1.66
2024-03-02T05:24:43.368Z,1.55
2024-03-02T05:25:43.342Z,1.59
2024-03-02T05:26:43.312Z,1.76
2024-03-02T05:27:43.417Z,1.73
2024-03-02T05:28:43.293Z,1.68
2024-03-02T05:29:43.439Z,1.63
2024-03-02T05:30:43.354Z,1.62
2024-03-02T05:31:43.274Z,1.59
2024-03-02T05:32:43.286Z,1.59
2024-03-02T05:33:43.377Z,1.53
2024-03-02T05:34:43.324Z,1.67
2024-03-02T05:35:43.246Z,1.59
2024-03-02T05:36:43.255Z,1.49
2024-03-02T05:37:43.246Z,1.62
2024-03-02T05:38:43.243Z,1.49
2024-03-02T05:39:43.263Z,1.59
2024-03-02T05:40:43.216Z,1.58
2024-03-02T05:41:43.204Z,1.53
2024-03-02T05:42:43.226Z,1.48
2024-03-02T05:43:43.219Z,1.38
2024-03-02T05:44:43.234Z,1.40
2024-03-02T05:45:43.270Z,1.37
2024-03-02T05:46:43.188Z,1.31
2024-03-02T05:47:43.185Z,1.26
2024-03-02T05:48:43.270Z,1.24
2024-03-02T05:49:43.153Z,1.16
2024-03-02T05:50:43.138Z,1.12
2024-03-02T05:51:43.171Z,1.20
2024-03-02T05:52:43.132Z,1.13
2024-03-02T05:53:43.192Z,1.16
2024-03-02T05:54:43.222Z,1.24
2024-03-02T05:55:43.116Z,1.22
2024-03-02T05:56:43.109Z,1.23
2024-03-02T05:57:43.167Z,1.30
2024-03-02T05:58:43.101Z,1.24
2024-03-02T05:59:43.088Z,1.22
2024-03-02T06:00:43.160Z,1.30
2024-03-02T06:01:43.163Z,1.28
2024-03-02T06:02:43.091Z,1.22
2024-03-02T06:03:43.105Z,1.24
2024-03-02T06:04:43.033Z,1.26
2024-03-02T06:05:43.054Z,1.17
2024-03-02T06:06:44.038Z,1.26
2024-03-02T06:07:43.053Z,1.35
2024-03-02T06:08:43.020Z,1.30
2024-03-02T06:09:43.043Z,1.23
2024-03-02T06:10:43.060Z,1.26
2024-03-02T06:11:43.004Z,1.30
2024-03-02T06:12:43.135Z,1.30
2024-03-02T06:13:43.034Z,1.28
2024-03-02T06:14:42.954Z,1.32
2024-03-02T06:15:42.972Z,1.32
2024-03-02T06:16:42.933Z,1.23
2024-03-02T06:17:43.034Z,1.34
2024-03-02T06:18:42.967Z,1.32
2024-03-02T06:19:42.936Z,1.28
2024-03-02T06:20:42.926Z,1.40
2024-03-02T06:21:43.003Z,1.31
2024-03-02T06:22:42.927Z,1.34
2024-03-02T06:23:42.887Z,1.24
2024-03-02T06:24:42.965Z,1.31
2024-03-02T06:25:42.938Z,1.30
2024-03-02T06:26:42.893Z,1.26
2024-03-02T06:27:42.937Z,1.31
2024-03-02T06:28:42.853Z,1.22
2024-03-02T06:29:42.876Z,1.41
2024-03-02T06:30:42.902Z,1.35
2024-03-02T06:31:42.864Z,1.41
2024-03-02T06:32:42.855Z,1.45
2024-03-02T06:33:42.987Z,1.44
2024-03-02T06:34:42.808Z,1.45
2024-03-02T06:35:42.795Z,1.42
2024-03-02T06:36:42.851Z,1.38
2024-03-02T06:37:42.787Z,1.26
2024-03-02T06:38:43.486Z,1.41
2024-03-02T06:39:42.843Z,1.38
2024-03-02T06:40:42.792Z,1.49
2024-03-02T06:41:42.776Z,1.63
2024-03-02T06:42:42.791Z,1.53
2024-03-02T06:43:42.746Z,1.50
2024-03-02T06:44:42.770Z,1.52
2024-03-02T06:45:42.860Z,1.59
2024-03-02T06:46:42.722Z,1.59
2024-03-02T06:47:42.727Z,1.62
2024-03-02T06:48:42.715Z,1.60
2024-03-02T06:49:43.008Z,1.60
2024-03-02T06:50:42.725Z,1.62
2024-03-02T06:51:42.683Z,1.68
2024-03-02T06:52:42.671Z,1.70
2024-03-02T06:53:42.680Z,1.71
2024-03-02T06:54:42.673Z,1.78
2024-03-02T06:55:42.683Z,1.77
2024-03-02T06:56:42.640Z,1.81
2024-03-02T06:57:42.690Z,1.74
2024-03-02T06:58:42.632Z,1.76
2024-03-02T06:59:42.611Z,1.88
2024-03-02T07:00:43.677Z,1.71
2024-03-02T07:01:42.632Z,1.73
2024-03-02T07:02:42.604Z,1.80
2024-03-02T07:03:42.657Z,1.85
2024-03-02T07:04:42.607Z,1.81
2024-03-02T07:05:42.627Z,1.88
2024-03-02T07:06:42.657Z,2.02
2024-03-02T07:07:42.560Z,2.00
2024-03-02T07:08:42.571Z,2.00
2024-03-02T07:09:42.653Z,2.08
2024-03-02T07:10:42.592Z,2.08
2024-03-02T07:11:42.529Z,2.04
2024-03-02T07:12:42.575Z,2.02
2024-03-02T07:13:42.544Z,2.06
2024-03-02T07:14:42.518Z,2.13
2024-03-02T07:15:42.516Z,2.14
2024-03-02T07:16:42.636Z,2.25
2024-03-02T07:17:42.525Z,2.25
2024-03-02T07:18:42.581Z,2.33
2024-03-02T07:19:42.576Z,2.33
2024-03-02T07:20:42.458Z,2.46
2024-03-02T07:21:42.522Z,2.46
2024-03-02T07:22:44.857Z,2.46
2024-03-02T07:23:43.437Z,2.38
2024-03-02T07:24:42.494Z,2.39
2024-03-02T07:27:43.445Z,2.68
2024-03-02T07:28:42.408Z,2.61
2024-03-02T07:29:42.418Z,2.74
2024-03-02T07:30:42.412Z,2.64
2024-03-02T07:31:42.378Z,2.71
2024-03-02T07:32:42.473Z,2.68
2024-03-02T07:33:42.459Z,2.79
2024-03-02T07:34:42.396Z,2.85
2024-03-02T07:35:42.337Z,2.90
2024-03-02T07:36:42.455Z,2.98
2024-03-02T07:37:42.344Z,2.86
2024-03-02T07:38:42.386Z,2.82
2024-03-02T07:39:42.381Z,2.92
2024-03-02T07:40:42.317Z,2.89
2024-03-02T07:41:42.297Z,3.04
2024-03-02T07:42:42.350Z,3.04
2024-03-02T07:43:42.307Z,3.11
2024-03-02T07:44:42.381Z,3.18
2024-03-02T07:45:42.284Z,3.26
2024-03-02T07:46:42.292Z,3.40
2024-03-02T07:47:42.273Z,3.65
2024-03-02T07:48:42.316Z,3.68
2024-03-02T07:49:42.251Z,3.87
2024-03-02T07:50:42.230Z,4.06
2024-03-02T07:51:42.239Z,4.10
2024-03-02T07:52:42.241Z,4.23
2024-03-02T07:53:42.247Z,4.23
2024-03-02T07:54:42.224Z,4.19
2024-03-02T07:55:42.251Z,4.20
2024-03-02T07:56:42.189Z,4.26
2024-03-02T07:57:42.232Z,4.17
2024-03-02T07:58:42.166Z,4.20
2024-03-02T07:59:42.253Z,4.16
2024-03-02T08:00:42.214Z,4.32
2024-03-02T08:01:42.279Z,4.45
2024-03-02T08:02:42.194Z,4.55
2024-03-02T08:03:42.169Z,4.58
2024-03-02T08:04:42.130Z,4.55
2024-03-02T08:05:42.120Z,4.66
2024-03-02T08:06:42.189Z,4.71
2024-03-02T08:07:42.114Z,4.82
2024-03-02T08:08:42.098Z,4.87
2024-03-02T08:09:42.100Z,4.92
2024-03-02T08:10:42.093Z,4.99
2024-03-02T08:11:42.150Z,4.97
2024-03-02T08:12:42.100Z,5.10
2024-03-02T08:13:42.162Z,5.14
2024-03-02T08:14:42.047Z,5.20
2024-03-02T08:15:42.072Z,5.32
2024-03-02T08:16:42.073Z,5.30
2024-03-02T08:17:43.098Z,5.32
2024-03-02T08:18:42.100Z,5.39
2024-03-02T08:19:42.018Z,5.36
2024-03-02T08:20:42.051Z,5.44
2024-03-02T08:21:42.083Z,5.38
2024-03-02T08:22:41.983Z,5.50
2024-03-02T08:23:43.152Z,5.41
2024-03-02T08:24:41.975Z,5.56
2024-03-02T08:25:42.016Z,5.44
2024-03-02T08:26:41.986Z,5.50
2024-03-02T08:27:41.987Z,5.38
2024-03-02T08:28:41.976Z,5.41
2024-03-02T08:29:41.967Z,5.51
2024-03-02T08:30:41.983Z,5.59
2024-03-02T08:31:42.556Z,5.73
2024-03-02T08:32:42.934Z,5.79
2024-03-02T08:33:42.022Z,5.90
2024-03-02T08:34:41.961Z,5.72
2024-03-02T08:35:41.915Z,5.83
2024-03-02T08:36:41.922Z,5.87
2024-03-02T08:37:41.925Z,6.09
2024-03-02T08:38:41.895Z,5.98
2024-03-02T08:39:41.928Z,5.97
2024-03-02T08:40:41.920Z,6.01
2024-03-02T08:41:41.894Z,5.84
2024-03-02T08:42:41.901Z,5.84
2024-03-02T08:43:41.867Z,5.90
2024-03-02T08:44:41.861Z,5.87
2024-03-02T08:45:41.875Z,5.89
2024-03-02T08:46:41.868Z,5.83
2024-03-02T08:47:41.831Z,5.73
2024-03-02T08:48:41.838Z,5.68
2024-03-02T08:49:41.814Z,5.68
2024-03-02T08:50:41.809Z,5.68
2024-03-02T08:51:41.820Z,5.73
2024-03-02T08:52:41.776Z,5.76
2024-03-02T08:53:41.807Z,5.76
2024-03-02T08:54:41.771Z,5.71
2024-03-02T08:55:41.750Z,5.83
2024-03-02T08:56:41.742Z,5.87
2024-03-02T08:57:41.767Z,5.94
2024-03-02T08:58:41.749Z,6.04
2024-03-02T08:59:41.726Z,6.27
2024-03-02T09:00:41.804Z,5.93
2024-03-02T09:01:41.774Z,5.97
2024-03-02T09:02:41.748Z,5.94
2024-03-02T09:03:41.771Z,5.94
2024-03-02T09:04:42.017Z,6.20
2024-03-02T09:05:41.669Z,6.44
2024-03-02T09:06:41.700Z,6.87
2024-03-02T09:07:41.671Z,7.00
2024-03-02T09:08:41.642Z,7.20
2024-03-02T09:09:41.710Z,7.21
2024-03-02T09:10:41.643Z,7.31
2024-03-02T09:11:41.623Z,7.40
2024-03-02T09:12:41.650Z,7.69
2024-03-02T09:13:41.616Z,7.79
2024-03-02T09:14:41.615Z,7.80
2024-03-02T09:15:41.637Z,7.76
2024-03-02T09:16:41.588Z,7.82
2024-03-02T09:17:41.713Z,7.90
2024-03-02T09:18:41.603Z,7.80
2024-03-02T09:19:41.559Z,7.88
2024-03-02T09:20:41.540Z,7.97
2024-03-02T09:21:41.615Z,8.23
2024-03-02T09:22:41.573Z,8.33
2024-03-02T09:23:41.559Z,8.38
2024-03-02T09:24:41.534Z,8.48
2024-03-02T09:25:41.516Z,8.48
2024-03-02T09:26:41.526Z,8.37
2024-03-02T09:27:41.521Z,8.60
2024-03-02T09:28:41.478Z,8.55
2024-03-02T09:29:41.481Z,8.52
2024-03-02T09:30:41.519Z,8.60
2024-03-02T09:31:41.481Z,8.45
2024-03-02T09:32:41.588Z,8.53
2024-03-02T09:33:41.524Z,8.60
2024-03-02T09:34:41.450Z,8.94
2024-03-02T09:35:41.431Z,8.95
2024-03-02T09:36:41.452Z,8.94
2024-03-02T09:37:41.409Z,9.04
2024-03-02T09:38:41.399Z,9.28
2024-03-02T09:39:41.409Z,9.14
2024-03-02T09:40:41.430Z,9.34
2024-03-02T09:41:41.415Z,9.47
2024-03-02T09:42:41.389Z,9.65
2024-03-02T09:43:41.367Z,9.95
2024-03-02T09:44:41.349Z,10.10
2024-03-02T09:45:41.397Z,10.33
2024-03-02T09:46:41.348Z,10.56
2024-03-02T09:47:41.357Z,10.63
2024-03-02T09:48:41.401Z,10.79
2024-03-02T09:49:41.342Z,10.78
2024-03-02T09:50:41.339Z,10.78
2024-03-02T09:51:41.344Z,10.81
2024-03-02T09:52:41.308Z,10.75
2024-03-02T09:53:41.290Z,10.90
2024-03-02T09:54:41.343Z,10.97
2024-03-02T09:55:41.331Z,10.93
2024-03-02T09:56:41.266Z,10.97
2024-03-02T09:57:41.855Z,11.02
2024-03-02T09:58:42.242Z,11.17
2024-03-02T09:59:41.267Z,11.19
2024-03-02T10:00:41.322Z,11.11
2024-03-02T10:01:41.261Z,11.11
2024-03-02T10:02:41.211Z,11.15
2024-03-02T10:03:42.783Z,11.35
2024-03-02T10:04:42.236Z,11.26
2024-03-02T10:05:41.217Z,11.33
2024-03-02T10:06:41.206Z,11.29
2024-03-02T10:07:41.183Z,11.26
2024-03-02T10:08:41.174Z,11.18
2024-03-02T10:09:41.236Z,11.10
2024-03-02T10:10:41.598Z,11.15
2024-03-02T10:11:41.145Z,11.07
2024-03-02T10:12:41.202Z,11.15
2024-03-02T10:13:41.124Z,11.04
2024-03-02T10:14:41.178Z,11.04
2024-03-02T10:15:41.204Z,11.08
2024-03-02T10:16:41.191Z,11.14
2024-03-02T10:17:41.159Z,11.26
2024-03-02T10:18:41.130Z,11.26
2024-03-02T10:19:41.148Z,11.11
2024-03-02T10:20:41.113Z,11.17
2024-03-02T10:21:41.079Z,11.26
2024-03-02T10:22:41.059Z,11.10
2024-03-02T10:23:41.080Z,11.11
2024-03-02T10:24:41.288Z,11.22
2024-03-02T10:25:47.629Z,11.26
2024-03-02T10:26:42.032Z,11.36
2024-03-02T10:27:41.097Z,11.35
2024-03-02T10:28:41.109Z,11.48
2024-03-02T10:29:41.096Z,11.48
2024-03-02T10:30:41.198Z,11.62
2024-03-02T10:31:41.074Z,11.69
2024-03-02T10:32:41.061Z,11.50
2024-03-02T10:33:41.038Z,11.55
2024-03-02T10:34:40.980Z,11.51
2024-03-02T10:35:41.105Z,11.45
2024-03-02T10:36:40.989Z,11.50
2024-03-02T10:37:40.940Z,11.55
2024-03-02T10:38:40.967Z,11.60
2024-03-02T10:39:41.545Z,11.66
2024-03-02T10:41:15.510Z,11.62
2024-03-02T10:41:40.905Z,11.65
2024-03-02T10:42:40.965Z,11.66
2024-03-02T10:43:40.974Z,11.69
2024-03-02T10:44:40.912Z,11.57
2024-03-02T10:45:40.912Z,11.80
2024-03-02T10:46:40.876Z,11.87
2024-03-02T10:47:40.936Z,11.95
2024-03-02T10:48:40.883Z,12.09
2024-03-02T10:49:40.840Z,12.21
2024-03-02T10:50:40.837Z,12.45
2024-03-02T10:51:40.847Z,12.43
2024-03-02T10:52:40.875Z,12.54
2024-03-02T10:53:40.814Z,12.67
2024-03-02T10:54:41.021Z,12.64
2024-03-02T10:55:40.876Z,12.78
2024-03-02T10:56:40.808Z,12.68
2024-03-02T10:57:40.902Z,12.70
2024-03-02T10:58:40.811Z,12.75
2024-03-02T10:59:40.793Z,12.87
2024-03-02T11:00:40.813Z,12.82
2024-03-02T11:01:40.871Z,12.85
2024-03-02T11:02:40.750Z,12.98
2024-03-02T11:03:40.854Z,12.91
2024-03-02T11:04:40.759Z,12.98
2024-03-02T11:05:40.743Z,13.08
2024-03-02T11:06:40.770Z,13.22
2024-03-02T11:07:40.703Z,13.22
2024-03-02T11:08:40.715Z,13.31
2024-03-02T11:09:40.718Z,13.18
2024-03-02T11:10:40.673Z,13.27
2024-03-02T11:11:40.692Z,13.47
2024-03-02T11:12:40.684Z,13.28
2024-03-02T11:13:42.445Z,13.18
2024-03-02T11:14:40.639Z,13.15
2024-03-02T11:15:40.742Z,13.22
2024-03-02T11:16:40.733Z,13.44
2024-03-02T11:17:40.665Z,13.46
2024-03-02T11:18:40.772Z,13.71
2024-03-02T11:19:40.657Z,13.74
2024-03-02T11:20:41.092Z,13.39
2024-03-02T11:21:40.668Z,13.28
2024-03-02T11:22:40.567Z,13.31
2024-03-02T11:23:40.623Z,13.54
2024-03-02T11:24:40.731Z,13.59
2024-03-02T11:25:40.636Z,13.56
2024-03-02T11:26:40.544Z,13.53
2024-03-02T11:27:40.624Z,13.52
2024-03-02T11:28:40.535Z,13.44
2024-03-02T11:29:40.525Z,13.31
2024-03-02T11:30:40.545Z,13.18
2024-03-02T11:31:40.507Z,13.20
2024-03-02T11:32:40.496Z,13.25
2024-03-02T11:33:40.552Z,13.12
2024-03-02T11:34:41.161Z,13.20
2024-03-02T11:35:40.505Z,13.44
2024-03-02T11:36:40.506Z,13.37
2024-03-02T11:37:40.462Z,13.22
2024-03-02T11:38:40.537Z,13.28
2024-03-02T11:39:40.572Z,13.47
2024-03-02T11:40:40.467Z,13.56
2024-03-02T11:41:40.436Z,13.57
2024-03-02T11:42:40.599Z,13.37
2024-03-02T11:43:40.432Z,13.42
2024-03-02T11:44:40.443Z,13.37
2024-03-02T11:45:40.490Z,13.27
2024-03-02T11:46:40.399Z,13.30
2024-03-02T11:47:40.398Z,13.38
2024-03-02T11:48:40.500Z,13.44
2024-03-02T11:49:40.406Z,13.47
2024-03-02T11:50:40.368Z,13.72
2024-03-02T11:51:40.383Z,13.75
2024-03-02T11:52:40.347Z,13.33
2024-03-02T11:53:40.347Z,13.19
2024-03-02T11:54:40.406Z,12.94
2024-03-02T11:55:40.329Z,13.01
2024-03-02T11:56:40.320Z,12.94
2024-03-02T11:57:40.332Z,12.95
2024-03-02T11:58:40.322Z,12.91
2024-03-02T11:59:40.334Z,12.97
2024-03-02T12:00:40.443Z,13.05
2024-03-02T12:01:40.331Z,13.08
2024-03-02T12:02:40.269Z,13.09
2024-03-02T12:03:40.369Z,13.16
2024-03-02T12:04:41.860Z,13.19
2024-03-02T12:05:41.281Z,13.22
2024-03-02T12:06:40.291Z,13.23
2024-03-02T12:07:40.237Z,13.23
2024-03-02T12:08:40.292Z,13.42
2024-03-02T12:09:40.233Z,13.50
2024-03-02T12:10:40.209Z,13.53
2024-03-02T12:11:40.236Z,13.67
2024-03-02T12:12:40.256Z,13.87
2024-03-02T12:13:40.219Z,13.89
2024-03-02T12:14:40.176Z,13.83
2024-03-02T12:15:40.324Z,13.87
2024-03-02T12:16:40.169Z,13.96
2024-03-02T12:17:40.190Z,13.99
2024-03-02T12:18:40.260Z,14.08
2024-03-02T12:19:40.144Z,14.08
2024-03-02T12:20:40.129Z,14.05
2024-03-02T12:21:40.165Z,13.97
2024-03-02T12:22:40.150Z,14.10
2024-03-02T12:23:40.138Z,13.87
2024-03-02T12:24:40.175Z,13.77
2024-03-02T12:25:40.096Z,13.79
2024-03-02T12:26:40.090Z,13.96
2024-03-02T12:27:40.126Z,14.17
2024-03-02T12:28:40.077Z,14.29
2024-03-02T12:29:40.069Z,14.18
2024-03-02T12:30:40.078Z,14.00
2024-03-02T12:31:40.058Z,13.96
2024-03-02T12:32:40.071Z,14.10
2024-03-02T12:33:40.173Z,14.22
2024-03-02T12:34:40.104Z,14.23
2024-03-02T12:35:40.049Z,14.18
2024-03-02T12:36:40.056Z,14.07
2024-03-02T12:37:40.032Z,13.97
2024-03-02T12:38:40.039Z,14.10
2024-03-02T12:39:40.038Z,14.05
2024-03-02T12:40:40.059Z,14.05
2024-03-02T12:41:40.079Z,14.12
2024-03-02T12:42:40.059Z,14.11
2024-03-02T12:43:39.956Z,13.96
2024-03-02T12:44:39.990Z,13.85
2024-03-02T12:45:39.966Z,13.92
2024-03-02T12:46:39.944Z,14.03
2024-03-02T12:47:39.961Z,14.12
2024-03-02T12:48:39.927Z,14.05
2024-03-02T12:49:39.927Z,13.93
2024-03-02T12:50:39.901Z,13.90
2024-03-02T12:51:39.980Z,14.03
2024-03-02T12:52:39.948Z,14.15
2024-03-02T12:53:39.872Z,14.25
2024-03-02T12:54:39.890Z,14.45
2024-03-02T12:55:39.860Z,14.43
2024-03-02T12:56:39.877Z,14.47
2024-03-02T12:57:43.508Z,14.44
2024-03-02T12:58:39.831Z,14.30
2024-03-02T12:59:39.823Z,14.28
2024-03-02T13:00:39.901Z,14.36
2024-03-02T13:01:39.958Z,14.51
2024-03-02T13:02:39.805Z,14.54
2024-03-02T13:03:39.946Z,14.65
2024-03-02T13:04:39.892Z,14.43
2024-03-02T13:05:39.797Z,14.18
2024-03-02T13:06:39.841Z,13.99
2024-03-02T13:07:39.778Z,14.00
2024-03-02T13:08:40.754Z,14.23
2024-03-02T13:09:39.853Z,14.28
2024-03-02T13:10:39.794Z,14.08
2024-03-02T13:11:39.748Z,13.87
2024-03-02T13:12:39.757Z,13.83
2024-03-02T13:13:39.716Z,13.93